Time;durP1;ratioP1;P1;durP2;ratioP2;P2;SDS_P1;SDS_P2;PMS_P1;PMS_P2;Temp;Humidity;BMP_temperature;BMP_pressure;BME280_temperature;BME280_humidity;BME280_pressure;Samples;Min_cycle;Max_cycle;Signal;HPM_P1;HPM_P2
2022/05/30 00:00:44;;;;;;;2.80;1.02;;;13.40;99.90;;;;;;5050652;28;20211;-78
2022/05/30 00:03:10;;;;;;;2.28;1.05;;;13.40;99.90;;;;;;5051081;28;20200;-78
2022/05/30 00:05:36;;;;;;;3.67;1.30;;;13.40;99.90;;;;;;5051275;28;20169;-78
2022/05/30 00:08:03;;;;;;;2.58;1.30;;;13.40;99.90;;;;;;5051250;28;20209;-78
2022/05/30 00:10:29;;;;;;;2.47;1.30;;;13.40;99.90;;;;;;5034731;28;20537;-78
2022/05/30 00:12:55;;;;;;;5.32;1.45;;;13.40;99.90;;;;;;5054819;28;20290;-79
2022/05/30 00:15:22;;;;;;;4.35;1.20;;;13.40;99.90;;;;;;5054793;28;20244;-78
2022/05/30 00:17:52;;;;;;;2.65;1.30;;;13.30;99.90;;;;;;5054285;28;20199;-78
2022/05/30 00:20:17;;;;;;;4.88;1.17;;;13.40;99.90;;;;;;5053564;28;20184;-78
2022/05/30 00:22:43;;;;;;;1.90;1.20;;;13.30;99.90;;;;;;5054590;28;20165;-79
2022/05/30 00:25:09;;;;;;;3.80;1.50;;;13.30;99.90;;;;;;5055570;28;20648;-78
2022/05/30 00:27:35;;;;;;;4.67;2.07;;;13.30;99.90;;;;;;5056384;28;20177;-78
2022/05/30 00:30:03;;;;;;;3.80;1.20;;;13.30;99.90;;;;;;5053760;28;20576;-78
2022/05/30 00:32:28;;;;;;;6.60;1.63;;;13.30;99.90;;;;;;5053922;28;20169;-78
2022/05/30 00:34:54;;;;;;;2.23;1.13;;;13.30;99.90;;;;;;5054311;28;20161;-77
2022/05/30 00:37:20;;;;;;;2.73;1.00;;;13.30;99.90;;;;;;5054273;28;20165;-77
2022/05/30 00:39:46;;;;;;;3.10;1.50;;;13.30;99.90;;;;;;5035730;28;20220;-77
2022/05/30 00:42:15;;;;;;;3.93;1.30;;;13.30;99.90;;;;;;5054312;28;20287;-77
2022/05/30 00:44:45;;;;;;;3.92;1.52;;;13.30;99.90;;;;;;5054050;28;20185;-78
2022/05/30 00:47:12;;;;;;;1.98;0.80;;;13.30;99.90;;;;;;5053829;28;20161;-78
2022/05/30 00:49:40;;;;;;;2.92;1.15;;;13.30;99.90;;;;;;5035357;28;20165;-77
2022/05/30 00:52:09;;;;;;;4.60;1.10;;;13.30;99.90;;;;;;5036063;28;20169;-77
2022/05/30 00:54:41;;;;;;;3.63;1.23;;;13.30;99.90;;;;;;5053901;28;20657;-77
2022/05/30 00:57:20;;;;;;;2.60;1.38;;;13.30;99.90;;;;;;5054055;28;20504;-77
2022/05/30 00:59:59;;;;;;;3.00;1.20;;;13.30;99.90;;;;;;5018850;28;20205;-77
2022/05/30 01:02:28;;;;;;;2.00;1.00;;;13.30;99.90;;;;;;5039011;28;20162;-77
2022/05/30 01:07:41;;;;;;;3.75;1.50;;;13.30;99.90;;;;;;5035909;28;20172;-77
2022/05/30 01:10:12;;;;;;;3.17;1.10;;;13.30;99.90;;;;;;5035215;28;20255;-77
2022/05/30 01:12:43;;;;;;;4.15;1.20;;;13.30;99.90;;;;;;5002672;28;20177;-77
2022/05/30 01:15:14;;;;;;;8.02;1.30;;;13.30;99.90;;;;;;5053223;28;20181;-77
2022/05/30 01:18:04;;;;;;;4.28;1.10;;;13.30;99.90;;;;;;5053323;28;20176;-77
2022/05/30 01:20:48;;;;;;;1.98;0.98;;;13.30;99.90;;;;;;5052410;28;20172;-76
2022/05/30 01:23:55;;;;;;;2.47;1.20;;;13.30;99.90;;;;;;5018926;28;20243;-77
2022/05/30 01:27:03;;;;;;;5.75;1.10;;;13.30;99.90;;;;;;5053276;28;20591;-77
2022/05/30 01:29:42;;;;;;;2.40;1.10;;;13.30;99.90;;;;;;5037233;28;20665;-76
2022/05/30 01:32:08;;;;;;;4.25;1.35;;;13.20;99.90;;;;;;5035675;28;20180;-77
2022/05/30 01:34:34;;;;;;;3.93;1.40;;;13.20;99.90;;;;;;5053384;28;20660;-78
2022/05/30 01:37:00;;;;;;;5.60;1.10;;;13.20;99.90;;;;;;5053386;28;20599;-77
2022/05/30 01:39:32;;;;;;;5.15;1.48;;;13.20;99.90;;;;;;5038981;28;20205;-77
2022/05/30 01:41:59;;;;;;;5.68;1.55;;;13.20;99.90;;;;;;5034914;28;20177;-78
2022/05/30 01:44:24;;;;;;;4.17;1.53;;;13.20;99.90;;;;;;5052578;28;20596;-78
2022/05/30 01:46:51;;;;;;;2.35;1.38;;;13.20;99.90;;;;;;5035008;28;20256;-77
2022/05/30 01:49:17;;;;;;;2.63;1.10;;;13.20;99.90;;;;;;5034663;28;20208;-77
2022/05/30 01:51:44;;;;;;;4.65;1.33;;;13.20;99.90;;;;;;5034559;28;20201;-77
2022/05/30 01:54:11;;;;;;;4.38;1.55;;;13.10;99.90;;;;;;5034797;28;20242;-78
2022/05/30 01:56:59;;;;;;;4.72;1.58;;;13.10;99.90;;;;;;5041910;28;20545;-77
2022/05/30 01:59:31;;;;;;;2.63;1.10;;;13.10;99.90;;;;;;5033772;28;20208;-77
2022/05/30 02:02:15;;;;;;;2.15;1.20;;;13.10;99.90;;;;;;5053359;28;20211;-77
2022/05/30 02:04:41;;;;;;;2.50;1.30;;;13.10;99.90;;;;;;5034553;28;20181;-77
2022/05/30 02:07:06;;;;;;;4.77;1.80;;;13.10;99.90;;;;;;5052432;28;20582;-78
2022/05/30 02:09:32;;;;;;;6.63;1.70;;;13.10;99.90;;;;;;5051600;28;20169;-77
2022/05/30 02:11:59;;;;;;;3.43;1.30;;;13.10;99.90;;;;;;5052248;28;20173;-77
2022/05/30 02:14:35;;;;;;;1.83;1.00;;;13.10;99.90;;;;;;5034186;28;21083;-77
2022/05/30 02:17:01;;;;;;;2.87;1.50;;;13.10;99.90;;;;;;5035040;28;20252;-77
2022/05/30 02:19:34;;;;;;;2.30;1.40;;;13.10;99.90;;;;;;5033712;28;20247;-77
2022/05/30 02:22:07;;;;;;;2.35;1.20;;;13.10;99.90;;;;;;5034325;28;20579;-78
2022/05/30 02:24:33;;;;;;;3.17;1.40;;;13.00;99.90;;;;;;5034156;28;20196;-77
2022/05/30 02:26:58;;;;;;;5.37;1.60;;;13.00;99.90;;;;;;5034295;28;20161;-77
2022/05/30 02:29:25;;;;;;;2.80;1.40;;;13.00;99.90;;;;;;5033659;28;20178;-77
2022/05/30 02:31:58;;;;;;;4.35;1.20;;;13.00;99.90;;;;;;5033985;28;20586;-77
2022/05/30 02:37:10;;;;;;;3.50;1.48;;;12.90;99.90;;;;;;5034099;28;20264;-77
2022/05/30 02:39:37;;;;;;;2.47;1.10;;;12.90;99.90;;;;;;5033066;28;20795;-77
2022/05/30 02:42:21;;;;;;;3.78;1.20;;;12.80;99.90;;;;;;5051741;28;20227;-77
2022/05/30 02:44:48;;;;;;;2.83;1.00;;;12.80;99.90;;;;;;5033869;28;21073;-77
2022/05/30 02:47:16;;;;;;;2.60;1.30;;;12.80;99.90;;;;;;5033892;28;20552;-77
2022/05/30 02:49:47;;;;;;;3.20;1.27;;;12.70;99.90;;;;;;5033052;28;20180;-77
2022/05/30 02:52:13;;;;;;;2.87;1.10;;;12.70;99.90;;;;;;5051514;28;20640;-77
2022/05/30 02:54:39;;;;;;;2.90;1.20;;;12.70;99.90;;;;;;5050484;28;20196;-77
2022/05/30 02:57:21;;;;;;;2.22;1.10;;;12.70;99.90;;;;;;5033754;28;20171;-77
2022/05/30 02:59:46;;;;;;;5.97;1.50;;;12.70;99.90;;;;;;5032942;28;20197;-77
2022/05/30 03:02:12;;;;;;;4.27;1.30;;;12.70;99.90;;;;;;5051814;28;20173;-77
2022/05/30 03:04:38;;;;;;;3.40;1.40;;;12.70;99.90;;;;;;5033560;28;20181;-77
2022/05/30 03:07:06;;;;;;;3.15;1.25;;;12.70;99.90;;;;;;5051740;28;20165;-77
2022/05/30 03:09:32;;;;;;;3.50;1.45;;;12.70;99.90;;;;;;5033160;28;20252;-77
2022/05/30 03:12:25;;;;;;;5.55;1.60;;;12.70;99.90;;;;;;5033511;28;20187;-77
2022/05/30 03:14:51;;;;;;;3.43;1.20;;;12.70;99.90;;;;;;5033290;28;20212;-77
2022/05/30 03:17:17;;;;;;;4.75;1.70;;;12.70;99.90;;;;;;5033536;28;20180;-77
2022/05/30 03:19:50;;;;;;;4.20;1.45;;;12.70;99.90;;;;;;5015863;23;20727;-82
2022/05/30 03:22:16;;;;;;;5.30;1.98;;;12.70;99.90;;;;;;5018999;28;20541;-82
2022/05/30 03:25:01;;;;;;;4.55;1.77;;;12.70;99.90;;;;;;5029534;28;20187;-82
2022/05/30 03:27:27;;;;;;;3.33;1.85;;;12.70;99.90;;;;;;5024246;28;20182;-82
2022/05/30 03:29:53;;;;;;;5.65;1.40;;;12.70;99.90;;;;;;5022559;28;20606;-82
2022/05/30 03:32:20;;;;;;;3.23;1.40;;;12.70;99.90;;;;;;5014076;28;20174;-82
2022/05/30 03:34:46;;;;;;;2.83;1.05;;;12.70;99.90;;;;;;5030692;28;20169;-82
2022/05/30 03:37:12;;;;;;;3.40;1.37;;;12.70;99.90;;;;;;5030698;28;20211;-82
2022/05/30 03:39:49;;;;;;;7.38;2.17;;;12.80;99.90;;;;;;5031568;28;20686;-82
2022/05/30 03:42:21;;;;;;;5.00;1.75;;;12.80;99.90;;;;;;5031688;28;20162;-82
2022/05/30 03:44:58;;;;;;;7.35;1.52;;;12.80;99.90;;;;;;5031414;28;20249;-82
2022/05/30 03:47:23;;;;;;;3.30;1.40;;;12.80;99.90;;;;;;5017766;28;20668;-82
2022/05/30 03:49:49;;;;;;;2.40;1.60;;;12.90;99.90;;;;;;5034630;28;20190;-82
2022/05/30 03:52:16;;;;;;;10.13;2.10;;;12.90;99.90;;;;;;5034552;28;20177;-81
2022/05/30 03:54:42;;;;;;;3.15;1.42;;;12.90;99.90;;;;;;5033869;28;20174;-82
2022/05/30 03:57:08;;;;;;;3.43;1.40;;;12.90;99.90;;;;;;5034398;28;20177;-82
2022/05/30 03:59:34;;;;;;;4.53;1.60;;;12.90;99.90;;;;;;5033448;28;20205;-82
2022/05/30 04:02:01;;;;;;;5.05;2.25;;;13.00;99.90;;;;;;5034395;28;20220;-82
2022/05/30 04:04:26;;;;;;;7.23;1.60;;;13.00;99.90;;;;;;5034638;28;20505;-82
2022/05/30 04:06:52;;;;;;;3.45;1.30;;;13.00;99.90;;;;;;5034416;28;20166;-82
2022/05/30 04:09:20;;;;;;;2.58;1.52;;;13.10;99.90;;;;;;5033678;28;20190;-82
2022/05/30 04:11:55;;;;;;;7.32;1.70;;;13.10;99.90;;;;;;5038357;28;20534;-82
2022/05/30 04:15:01;;;;;;;2.60;1.42;;;13.10;99.90;;;;;;5039638;28;20177;-82
2022/05/30 04:17:33;;;;;;;4.10;1.70;;;13.20;99.90;;;;;;5042770;28;20547;-82
2022/05/30 04:20:02;;;;;;;2.28;1.58;;;13.20;99.90;;;;;;5034250;28;20209;-81
2022/05/30 04:22:28;;;;;;;4.70;2.05;;;13.20;99.90;;;;;;5033837;28;20184;-82
2022/05/30 04:25:11;;;;;;;4.65;1.60;;;13.20;99.90;;;;;;5033646;28;20174;-82
2022/05/30 04:27:38;;;;;;;3.92;1.45;;;13.30;99.90;;;;;;5033757;28;20169;-83
2022/05/30 04:30:06;;;;;;;2.20;1.15;;;13.30;99.90;;;;;;5032850;28;20200;-82
2022/05/30 04:32:36;;;;;;;6.18;1.80;;;13.30;99.90;;;;;;5033531;28;20525;-82
2022/05/30 04:35:07;;;;;;;5.68;1.92;;;13.40;99.90;;;;;;5033319;28;20166;-82
2022/05/30 04:37:33;;;;;;;3.60;1.40;;;13.40;99.90;;;;;;5033071;28;20171;-82
2022/05/30 04:40:25;;;;;;;2.97;1.40;;;13.50;99.90;;;;;;5031375;28;20210;-82
2022/05/30 04:43:10;;;;;;;3.58;1.20;;;13.50;99.90;;;;;;5034342;28;20579;-82
2022/05/30 04:46:04;;;;;;;2.65;1.27;;;13.50;99.90;;;;;;5034267;28;20256;-82
2022/05/30 04:48:38;;;;;;;3.92;1.45;;;13.60;99.90;;;;;;5017676;28;20181;-83
2022/05/30 04:51:04;;;;;;;6.97;1.92;;;13.60;99.90;;;;;;5015657;28;20232;-82
2022/05/30 04:53:32;;;;;;;4.27;2.30;;;13.70;99.90;;;;;;5034490;28;20178;-82
2022/05/30 04:56:23;;;;;;;7.20;2.42;;;13.70;99.90;;;;;;5033989;28;20719;-82
2022/05/30 04:59:01;;;;;;;2.72;1.40;;;13.80;99.90;;;;;;5032775;28;20208;-82
2022/05/30 05:01:27;;;;;;;3.05;1.20;;;13.80;99.90;;;;;;5015267;28;20182;-82
2022/05/30 05:03:53;;;;;;;4.50;1.70;;;13.90;99.90;;;;;;5016270;28;20613;-82
2022/05/30 05:06:21;;;;;;;5.85;1.55;;;13.90;99.90;;;;;;5033392;28;20166;-82
2022/05/30 05:08:50;;;;;;;5.83;1.63;;;13.90;99.90;;;;;;5032689;28;20201;-82
2022/05/30 05:11:37;;;;;;;3.55;1.35;;;14.00;99.90;;;;;;5033618;28;21186;-82
2022/05/30 05:14:21;;;;;;;3.13;1.20;;;14.00;99.90;;;;;;5033753;28;20177;-83
2022/05/30 05:17:08;;;;;;;4.45;1.40;;;14.10;99.90;;;;;;5033562;28;20256;-82
2022/05/30 05:19:36;;;;;;;4.00;1.73;;;14.10;99.90;;;;;;5031489;28;20206;-82
2022/05/30 05:22:02;;;;;;;2.45;1.10;;;14.20;99.90;;;;;;5031558;28;20630;-81
2022/05/30 05:24:29;;;;;;;4.85;1.52;;;14.20;99.90;;;;;;5032171;28;20170;-82
2022/05/30 05:27:17;;;;;;;4.13;1.23;;;14.30;99.90;;;;;;5033464;28;20168;-82
2022/05/30 05:29:43;;;;;;;3.90;1.85;;;14.40;99.90;;;;;;5031749;28;20194;-82
2022/05/30 05:32:10;;;;;;;4.25;1.35;;;14.40;99.90;;;;;;5033271;28;20170;-82
2022/05/30 05:34:36;;;;;;;6.35;1.40;;;14.40;99.90;;;;;;5032049;28;20505;-82
2022/05/30 05:37:02;;;;;;;4.30;1.37;;;14.50;99.90;;;;;;5033248;28;20268;-81
2022/05/30 05:39:32;;;;;;;7.00;1.55;;;14.50;99.90;;;;;;5031414;28;21204;-81
2022/05/30 05:42:01;;;;;;;3.78;1.50;;;14.60;99.90;;;;;;5031877;28;20174;-81
2022/05/30 05:44:27;;;;;;;7.60;2.00;;;14.70;99.90;;;;;;5032005;28;20196;-82
2022/05/30 05:46:57;;;;;;;5.40;1.40;;;14.80;99.90;;;;;;5031799;28;20676;-82
2022/05/30 05:49:24;;;;;;;6.20;1.20;;;14.90;99.90;;;;;;5030997;28;20197;-82
2022/05/30 05:51:54;;;;;;;5.70;2.00;;;15.00;99.90;;;;;;5031409;28;20173;-82
2022/05/30 05:54:23;;;;;;;6.03;2.05;;;15.10;99.90;;;;;;5031900;28;20571;-82
2022/05/30 05:56:49;;;;;;;6.43;1.38;;;15.20;99.90;;;;;;5031724;28;20170;-82
2022/05/30 05:59:22;;;;;;;5.65;1.30;;;15.30;99.90;;;;;;5030924;28;20237;-82
2022/05/30 06:01:48;;;;;;;4.67;1.43;;;15.50;99.90;;;;;;5031380;28;20619;-82
2022/05/30 06:04:13;;;;;;;5.33;1.87;;;15.60;99.90;;;;;;5014936;28;20194;-82
2022/05/30 06:06:45;;;;;;;5.53;1.50;;;15.60;99.90;;;;;;5032725;28;20575;-83
2022/05/30 06:09:14;;;;;;;5.23;2.23;;;15.70;99.90;;;;;;5031902;28;20200;-81
2022/05/30 06:11:50;;;;;;;5.40;1.30;;;15.80;99.90;;;;;;5014787;28;20666;-82
2022/05/30 06:14:16;;;;;;;3.97;1.70;;;15.90;99.90;;;;;;5032710;28;21049;-83
2022/05/30 06:16:42;;;;;;;3.80;1.70;;;15.90;99.90;;;;;;5031350;28;20573;-83
2022/05/30 06:19:13;;;;;;;7.10;1.70;;;16.00;99.90;;;;;;5014094;28;20632;-80
2022/05/30 06:21:39;;;;;;;5.03;1.77;;;16.00;99.90;;;;;;5025424;28;20579;-80
2022/05/30 06:24:07;;;;;;;7.37;1.63;;;16.10;99.90;;;;;;5038643;28;20253;-80
2022/05/30 06:27:04;;;;;;;5.10;1.73;;;16.20;99.90;;;;;;5018576;28;20589;-79
2022/05/30 06:29:54;;;;;;;3.40;1.50;;;16.30;99.90;;;;;;5030248;28;20623;-79
2022/05/30 06:32:20;;;;;;;5.77;1.73;;;16.40;99.90;;;;;;5030618;28;20610;-79
2022/05/30 06:35:15;;;;;;;4.47;1.57;;;16.40;99.90;;;;;;5018395;28;20596;-80
2022/05/30 06:37:42;;;;;;;3.60;1.80;;;16.50;99.90;;;;;;5012346;28;20590;-80
2022/05/30 06:40:09;;;;;;;7.33;2.20;;;16.50;99.90;;;;;;5010122;28;20607;-79
2022/05/30 06:42:41;;;;;;;8.40;2.20;;;16.60;99.90;;;;;;5010630;28;20574;-80
2022/05/30 06:45:47;;;;;;;2.73;1.27;;;16.60;99.90;;;;;;5014797;28;20642;-80
2022/05/30 06:48:32;;;;;;;6.45;2.20;;;16.60;99.90;;;;;;5022922;28;20771;-80
2022/05/30 06:51:18;;;;;;;5.87;2.97;;;16.60;99.90;;;;;;5021151;28;20676;-80
2022/05/30 06:53:45;;;;;;;5.17;1.80;;;16.70;99.90;;;;;;5013733;28;20634;-80
2022/05/30 06:56:16;;;;;;;8.83;2.17;;;16.80;99.90;;;;;;5030329;28;20572;-81
2022/05/30 06:58:47;;;;;;;6.07;1.90;;;16.80;99.90;;;;;;5030036;28;20205;-81
2022/05/30 07:01:14;;;;;;;5.60;1.77;;;16.90;99.90;;;;;;5029693;28;20565;-81
2022/05/30 07:03:41;;;;;;;4.33;2.33;;;16.90;99.90;;;;;;5031215;28;20564;-80
2022/05/30 07:06:34;;;;;;;9.13;2.67;;;17.00;99.90;;;;;;5031631;28;20556;-81
2022/05/30 07:09:13;;;;;;;6.53;2.50;;;17.10;99.90;;;;;;5029440;28;20633;-80
2022/05/30 07:12:09;;;;;;;4.73;2.67;;;17.10;99.90;;;;;;5031211;28;20583;-81
2022/05/30 07:14:36;;;;;;;3.10;1.70;;;17.10;99.90;;;;;;5029859;28;21196;-81
2022/05/30 07:17:02;;;;;;;5.07;2.23;;;17.20;99.90;;;;;;5029966;28;20580;-81
2022/05/30 07:19:27;;;;;;;5.30;3.07;;;17.20;99.90;;;;;;5029737;28;21206;-81
2022/05/30 07:21:59;;;;;;;6.33;2.20;;;17.30;99.90;;;;;;5038047;28;20564;-81
2022/05/30 07:24:44;;;;;;;5.57;1.90;;;17.30;99.90;;;;;;5035288;28;20560;-80
2022/05/30 07:27:46;;;;;;;4.87;2.03;;;17.40;99.90;;;;;;5019418;28;20639;-83
2022/05/30 07:30:31;;;;;;;9.03;3.50;;;17.40;99.90;;;;;;5013845;28;20624;-82
2022/05/30 07:33:25;;;;;;;5.80;2.43;;;17.30;99.90;;;;;;4977876;28;20715;-84
2022/05/30 07:36:21;;;;;;;4.13;1.93;;;17.40;99.90;;;;;;5015854;28;20569;-82
2022/05/30 07:39:09;;;;;;;4.70;2.40;;;17.40;99.90;;;;;;5006896;28;20744;-84
2022/05/30 07:41:56;;;;;;;4.80;2.40;;;17.40;99.90;;;;;;4994467;28;20994;-82
2022/05/30 07:44:40;;;;;;;8.30;2.97;;;17.50;99.90;;;;;;4997867;28;20577;-83
2022/05/30 07:47:17;;;;;;;5.27;3.43;;;17.50;99.90;;;;;;5014913;28;20626;-82
2022/05/30 07:50:02;;;;;;;8.47;2.60;;;17.60;99.90;;;;;;5014594;28;20637;-82
2022/05/30 07:52:53;;;;;;;7.07;2.33;;;17.60;99.90;;;;;;5014944;28;20581;-83
2022/05/30 07:55:31;;;;;;;7.70;2.53;;;17.80;99.90;;;;;;4998742;28;20683;-82
2022/05/30 07:58:04;;;;;;;4.37;2.23;;;17.80;99.90;;;;;;5016985;28;20585;-82
2022/05/30 08:00:34;;;;;;;6.27;2.37;;;17.90;99.90;;;;;;5035120;28;20602;-82
2022/05/30 08:03:11;;;;;;;8.33;2.00;;;18.00;99.90;;;;;;5034538;28;20568;-82
2022/05/30 08:05:43;;;;;;;5.83;2.70;;;18.10;99.90;;;;;;5034616;28;20596;-81
2022/05/30 08:08:27;;;;;;;5.67;2.63;;;18.20;99.90;;;;;;5035563;28;20568;-81
2022/05/30 08:10:54;;;;;;;6.60;1.67;;;18.30;99.90;;;;;;5017672;28;20684;-82
2022/05/30 08:13:21;;;;;;;5.33;2.00;;;18.40;99.90;;;;;;5026813;28;20600;-82
2022/05/30 08:15:55;;;;;;;2.80;1.60;;;18.50;99.90;;;;;;5016387;28;20636;-82
2022/05/30 08:18:27;;;;;;;5.70;1.97;;;18.60;99.90;;;;;;4994684;28;20636;-82
2022/05/30 08:20:58;;;;;;;6.10;2.10;;;18.70;99.90;;;;;;5003170;28;20588;-79
2022/05/30 08:23:24;;;;;;;5.13;1.57;;;18.90;99.90;;;;;;5033472;28;20622;-81
2022/05/30 08:25:51;;;;;;;6.40;2.60;;;19.00;99.90;;;;;;5033003;28;20577;-80
2022/05/30 08:28:21;;;;;;;7.20;1.97;;;19.10;99.90;;;;;;5017276;28;20584;-80
2022/05/30 08:30:50;;;;;;;8.03;1.70;;;19.20;99.90;;;;;;5015078;28;20643;-80
2022/05/30 08:33:27;;;;;;;4.33;1.37;;;19.30;99.90;;;;;;5014816;28;20934;-80
2022/05/30 08:36:08;;;;;;;3.33;1.77;;;19.40;99.90;;;;;;5019096;28;20616;-80
2022/05/30 08:38:37;;;;;;;4.40;1.40;;;19.60;99.90;;;;;;5010568;28;20802;-81
2022/05/30 08:43:58;;;;;;;2.40;1.00;;;19.90;99.90;;;;;;5003778;28;20696;-80
2022/05/30 08:46:57;;;;;;;2.57;1.20;;;20.00;99.90;;;;;;5015912;28;21025;-82
2022/05/30 08:49:34;;;;;;;4.47;1.17;;;20.20;99.90;;;;;;4996289;28;20638;-83
2022/05/30 08:52:38;;;;;;;5.70;1.93;;;20.50;99.90;;;;;;5014939;28;20991;-81
2022/05/30 08:55:13;;;;;;;2.97;1.20;;;20.80;99.90;;;;;;5017164;28;20678;-82
2022/05/30 08:57:53;;;;;;;5.20;1.43;;;21.10;99.90;;;;;;5022248;28;20589;-82
2022/05/30 09:00:30;;;;;;;3.50;1.27;;;21.70;99.90;;;;;;5029780;28;20624;-81
2022/05/30 09:03:35;;;;;;;4.20;1.50;;;22.20;99.90;;;;;;5032547;28;20622;-82
2022/05/30 09:06:18;;;;;;;6.43;1.73;;;22.50;99.90;;;;;;5033663;28;20565;-82
2022/05/30 09:08:53;;;;;;;7.10;2.03;;;22.70;99.90;;;;;;5012284;28;20624;-82
2022/05/30 09:11:43;;;;;;;3.57;1.40;;;23.10;99.90;;;;;;5000637;28;20656;-82
2022/05/30 09:14:28;;;;;;;5.20;1.30;;;23.60;99.90;;;;;;5017985;28;20997;-80
2022/05/30 09:16:58;;;;;;;4.70;1.17;;;24.20;99.90;;;;;;5021450;28;20616;-80
2022/05/30 09:19:25;;;;;;;2.73;1.50;;;24.80;99.90;;;;;;4998459;28;20652;-82
2022/05/30 09:21:55;;;;;;;3.60;1.57;;;25.40;99.80;;;;;;5017142;28;20601;-80
2022/05/30 09:24:21;;;;;;;5.00;1.67;;;25.70;98.10;;;;;;5042381;23;20672;-81
2022/05/30 09:26:46;;;;;;;5.87;1.90;;;26.00;97.80;;;;;;5042759;28;20586;-82
2022/05/30 09:29:37;;;;;;;4.17;1.80;;;26.60;99.10;;;;;;5051961;28;20192;-82
2022/05/30 09:32:31;;;;;;;6.00;1.77;;;27.70;97.80;;;;;;5044698;28;20588;-82
2022/05/30 09:35:29;;;;;;;4.77;1.40;;;28.90;97.90;;;;;;5035225;28;20706;-81
2022/05/30 09:38:19;;;;;;;2.63;1.00;;;29.50;94.60;;;;;;5068056;28;21087;-83
2022/05/30 09:41:06;;;;;;;4.30;1.27;;;29.50;91.10;;;;;;5059816;28;20583;-83
2022/05/30 09:44:04;;;;;;;2.23;1.03;;;29.30;80.00;;;;;;5056138;28;20990;-82
2022/05/30 09:46:34;;;;;;;2.93;1.00;;;28.80;76.90;;;;;;5040893;28;20974;-82
2022/05/30 09:49:27;;;;;;;4.43;1.63;;;28.20;74.60;;;;;;5058014;28;20942;-82
2022/05/30 09:52:02;;;;;;;2.53;0.87;;;27.50;73.10;;;;;;5041527;28;20602;-80
2022/05/30 09:54:32;;;;;;;2.40;1.10;;;26.80;72.20;;;;;;5058983;28;20610;-81
2022/05/30 09:57:05;;;;;;;2.13;0.87;;;26.10;71.10;;;;;;5057178;28;20701;-80
2022/05/30 09:59:54;;;;;;;2.93;1.20;;;25.30;71.40;;;;;;5055840;28;20647;-82
2022/05/30 10:02:27;;;;;;;3.60;1.37;;;24.60;71.80;;;;;;5041301;28;20602;-83
2022/05/30 10:05:27;;;;;;;10.97;2.37;;;24.00;71.70;;;;;;5042555;28;20707;-82
2022/05/30 10:07:56;;;;;;;5.87;1.10;;;23.30;71.40;;;;;;5041479;28;20686;-82
2022/05/30 10:10:53;;;;;;;5.20;1.30;;;22.80;72.00;;;;;;5047825;28;20656;-82
2022/05/30 10:13:41;;;;;;;3.27;1.23;;;22.20;72.10;;;;;;5060679;28;20665;-82
2022/05/30 10:16:36;;;;;;;4.63;1.43;;;21.80;73.20;;;;;;5052825;28;20586;-83
2022/05/30 10:19:09;;;;;;;2.40;1.00;;;21.30;73.60;;;;;;5055081;28;20680;-82
2022/05/30 10:28:14;;;;;;;2.67;1.10;;;20.90;74.60;;;;;;5057745;28;20571;-82
2022/05/30 10:28:20;;;;;;;4.30;1.13;;;20.30;76.20;;;;;;5052166;28;20582;-82
2022/05/30 10:31:31;;;;;;;2.43;1.23;;;20.00;76.70;;;;;;5010400;28;20656;-72
2022/05/30 10:34:23;;;;;;;3.53;1.10;;;19.90;78.50;;;;;;5006640;28;20987;-72
2022/05/30 10:37:40;;;;;;;2.33;1.27;;;19.70;78.40;;;;;;5043610;28;20682;-72
2022/05/30 10:40:27;;;;;;;2.60;1.50;;;19.70;80.30;;;;;;4936818;28;20681;-72
2022/05/30 10:43:16;;;;;;;5.70;1.50;;;19.80;81.70;;;;;;4949806;28;20613;-71
2022/05/30 10:45:51;;;;;;;3.73;1.10;;;20.00;83.50;;;;;;5021105;28;20718;-72
2022/05/30 10:48:31;;;;;;;4.07;1.97;;;20.20;84.30;;;;;;5049991;28;20575;-72
2022/05/30 10:51:15;;;;;;;2.20;1.00;;;20.70;84.70;;;;;;5050291;28;20666;-73
2022/05/30 10:53:49;;;;;;;2.60;1.00;;;21.10;83.00;;;;;;5049722;28;20571;-73
2022/05/30 10:56:27;;;;;;;3.30;1.10;;;21.70;85.10;;;;;;5049604;28;20564;-72
2022/05/30 10:59:11;;;;;;;4.17;1.27;;;22.30;87.00;;;;;;5049930;28;20638;-73
2022/05/30 11:01:44;;;;;;;2.77;0.93;;;22.70;85.70;;;;;;5049386;28;20564;-72
2022/05/30 11:04:40;;;;;;;4.10;0.97;;;23.20;81.70;;;;;;5051122;28;21170;-73
2022/05/30 11:07:43;;;;;;;3.67;1.40;;;23.40;78.30;;;;;;5050831;28;20697;-72
2022/05/30 11:10:29;;;;;;;2.97;1.00;;;23.70;78.00;;;;;;5048589;28;20590;-72
2022/05/30 11:13:33;;;;;;;4.17;1.33;;;23.90;73.40;;;;;;5032898;28;21134;-72
2022/05/30 11:16:31;;;;;;;2.43;0.97;;;24.10;76.40;;;;;;5049683;28;20590;-73
2022/05/30 11:19:59;;;;;;;2.63;1.00;;;24.50;77.60;;;;;;5050288;28;20660;-72
2022/05/30 11:22:50;;;;;;;2.73;1.17;;;24.70;76.50;;;;;;5047491;28;20633;-72
2022/05/30 11:25:46;;;;;;;2.53;1.23;;;24.90;73.00;;;;;;5049059;28;20630;-71
2022/05/30 11:28:52;;;;;;;2.60;1.03;;;25.00;73.90;;;;;;5050550;28;20575;-72
2022/05/30 11:31:27;;;;;;;2.30;0.90;;;25.20;71.40;;;;;;5048842;28;20586;-74
2022/05/30 11:34:32;;;;;;;3.47;1.07;;;25.40;72.10;;;;;;5032694;28;20678;-72
2022/05/30 11:37:06;;;;;;;2.10;0.97;;;25.40;69.20;;;;;;5044401;28;20657;-72
2022/05/30 11:39:43;;;;;;;2.00;0.87;;;25.40;65.80;;;;;;5046203;28;20630;-73
2022/05/30 11:42:36;;;;;;;2.10;0.90;;;25.20;64.00;;;;;;5045068;28;20657;-71
2022/05/30 11:45:41;;;;;;;2.17;1.10;;;25.10;64.80;;;;;;5040646;28;21037;-71
2022/05/30 11:48:16;;;;;;;3.73;1.10;;;25.00;64.00;;;;;;5035823;28;20583;-72
2022/05/30 11:50:54;;;;;;;3.87;1.77;;;24.70;55.50;;;;;;5030164;28;20576;-71
2022/05/30 11:53:32;;;;;;;3.40;0.90;;;24.30;58.80;;;;;;5030177;28;20572;-72
2022/05/30 11:56:23;;;;;;;4.60;1.03;;;24.20;60.40;;;;;;5038063;28;20619;-72
2022/05/30 11:58:57;;;;;;;1.83;0.80;;;24.00;59.90;;;;;;5058700;28;20619;-73
2022/05/30 12:01:27;;;;;;;3.33;0.93;;;23.90;60.60;;;;;;5043850;28;20591;-73
2022/05/30 12:04:18;;;;;;;3.10;1.20;;;23.80;60.40;;;;;;5048164;28;20629;-72
2022/05/30 12:07:03;;;;;;;2.53;1.20;;;23.70;60.80;;;;;;5045315;28;20666;-71
2022/05/30 12:09:40;;;;;;;3.80;1.50;;;23.70;61.80;;;;;;5052466;28;20617;-72
2022/05/30 12:12:17;;;;;;;3.20;1.20;;;23.70;62.30;;;;;;5054492;28;20566;-71
2022/05/30 12:15:03;;;;;;;2.50;1.00;;;23.60;62.10;;;;;;5054013;28;20590;-71
2022/05/30 12:24:21;;;;;;;1.83;0.93;;;23.10;59.70;;;;;;5050425;28;20666;-73
2022/05/30 12:26:56;;;;;;;2.00;1.10;;;22.90;60.20;;;;;;5045884;28;20628;-73
2022/05/30 12:29:37;;;;;;;3.77;1.93;;;22.80;60.80;;;;;;5051783;28;20641;-76
2022/05/30 12:32:21;;;;;;;4.30;1.50;;;22.60;60.10;;;;;;5052892;28;20598;-76
2022/05/30 12:35:11;;;;;;;2.70;1.07;;;22.50;59.90;;;;;;5053664;28;20591;-75
2022/05/30 12:37:59;;;;;;;2.83;1.13;;;22.40;59.60;;;;;;5049369;28;20638;-75
2022/05/30 12:40:25;;;;;;;2.03;0.90;;;22.30;59.80;;;;;;5033035;28;20581;-75
2022/05/30 12:43:04;;;;;;;2.47;0.93;;;22.10;60.90;;;;;;5032302;28;20598;-75
2022/05/30 12:45:42;;;;;;;2.40;1.10;;;22.00;60.80;;;;;;5052711;28;20205;-74
2022/05/30 12:48:25;;;;;;;2.13;1.10;;;21.90;58.70;;;;;;5035772;28;20591;-74
2022/05/30 12:50:51;;;;;;;2.90;1.50;;;21.80;59.40;;;;;;5052073;28;20597;-75
2022/05/30 12:53:18;;;;;;;6.13;1.40;;;21.80;59.60;;;;;;5053527;28;20567;-75
2022/05/30 12:55:46;;;;;;;3.17;1.60;;;21.70;59.50;;;;;;5052110;28;20610;-74
2022/05/30 12:58:20;;;;;;;5.63;1.70;;;21.70;60.10;;;;;;5052749;28;20818;-74
2022/05/30 13:00:51;;;;;;;2.20;1.63;;;21.60;56.50;;;;;;5050401;28;20168;-73
2022/05/30 13:03:20;;;;;;;2.60;1.40;;;21.70;58.70;;;;;;5051234;28;20572;-74
2022/05/30 13:06:10;;;;;;;4.03;1.67;;;21.80;59.60;;;;;;5052806;28;20599;-74
2022/05/30 13:08:52;;;;;;;2.80;1.40;;;21.90;59.30;;;;;;5052870;28;20572;-74
2022/05/30 13:11:21;;;;;;;1.93;1.20;;;22.00;59.10;;;;;;5052199;28;20702;-73
2022/05/30 13:13:53;;;;;;;2.30;1.60;;;22.00;59.40;;;;;;5052035;28;20701;-74
2022/05/30 13:16:41;;;;;;;4.03;1.60;;;22.00;58.20;;;;;;5051833;28;21417;-74
2022/05/30 13:19:13;;;;;;;4.13;2.27;;;22.00;58.60;;;;;;5050594;28;20197;-74
2022/05/30 13:21:49;;;;;;;3.10;2.00;;;22.10;59.40;;;;;;5045369;28;20629;-74
2022/05/30 13:24:37;;;;;;;2.90;1.67;;;22.10;58.40;;;;;;5052325;28;21169;-74
2022/05/30 13:27:03;;;;;;;2.97;1.87;;;22.10;58.00;;;;;;5051646;28;21141;-74
2022/05/30 13:29:38;;;;;;;2.87;1.50;;;22.10;58.80;;;;;;5052168;28;20571;-74
2022/05/30 13:32:09;;;;;;;3.53;1.30;;;22.20;58.60;;;;;;5052772;28;20582;-74
2022/05/30 13:34:36;;;;;;;2.73;1.60;;;22.30;58.90;;;;;;5051758;28;20607;-74
2022/05/30 13:37:03;;;;;;;3.10;1.30;;;22.30;59.00;;;;;;5050188;28;20946;-73
2022/05/30 13:39:31;;;;;;;2.83;1.50;;;22.50;58.70;;;;;;5052003;28;20982;-74
2022/05/30 13:41:57;;;;;;;2.80;2.00;;;22.50;58.10;;;;;;5051136;28;20662;-74
2022/05/30 13:44:28;;;;;;;3.87;1.83;;;22.60;58.00;;;;;;5052870;28;20610;-73
2022/05/30 13:47:02;;;;;;;4.10;1.80;;;22.60;57.30;;;;;;5051525;28;20556;-73
2022/05/30 13:49:35;;;;;;;2.90;1.50;;;22.60;57.40;;;;;;5051569;28;20622;-74
2022/05/30 13:52:03;;;;;;;2.90;1.47;;;22.70;57.30;;;;;;5052513;28;20599;-74